Time;durP1;ratioP1;P1;durP2;ratioP2;P2;SDS_P1;SDS_P2;PMS_P1;PMS_P2;Temp;Humidity;BMP_temperature;BMP_pressure;BME280_temperature;BME280_humidity;BME280_pressure;Samples;Min_cycle;Max_cycle;Signal;HPM_P1;HPM_P2
2023/06/22 00:01:54;;;;;;;24.83;12.20;;;;;;;;;;5014987;28;20018;-86
2023/06/22 00:04:20;;;;;;;23.75;10.02;;;;;;;;;;5011576;28;20140;-88
2023/06/22 00:06:46;;;;;;;22.98;9.80;;;;;;;;;;5012142;28;20056;-87
2023/06/22 00:09:12;;;;;;;25.13;10.02;;;;;;;;;;4995403;28;20094;-86
2023/06/22 00:11:38;;;;;;;15.73;8.05;;;;;;;;;;5011772;28;20046;-85
2023/06/22 00:14:04;;;;;;;19.58;8.23;;;;;;;;;;5012654;28;20057;-87
2023/06/22 00:16:33;;;;;;;20.55;9.35;;;;;;;;;;5010892;28;20045;-85
2023/06/22 00:19:03;;;;;;;17.33;8.20;;;;;;;;;;5012057;28;20058;-87
2023/06/22 00:21:29;;;;;;;23.98;10.50;;;;;;;;;;5012649;28;20061;-83
2023/06/22 00:23:57;;;;;;;22.85;10.13;;;;;;;;;;5013830;28;20049;-85
2023/06/22 00:26:23;;;;;;;28.63;11.20;;;;;;;;;;4996648;28;20069;-85
2023/06/22 00:28:49;;;;;;;28.05;13.13;;;;;;;;;;5011937;28;20053;-84
2023/06/22 00:31:15;;;;;;;33.38;15.38;;;;;;;;;;5008604;28;20039;-87
2023/06/22 00:33:41;;;;;;;16.67;8.88;;;;;;;;;;5006964;28;20034;-86
2023/06/22 00:36:07;;;;;;;26.02;9.57;;;;;;;;;;4992982;28;20053;-86
2023/06/22 00:38:34;;;;;;;27.60;9.02;;;;;;;;;;5014105;28;20093;-85
2023/06/22 00:41:02;;;;;;;18.80;9.48;;;;;;;;;;5014860;28;20030;-85
2023/06/22 00:43:28;;;;;;;30.50;16.33;;;;;;;;;;5014670;28;20029;-86
2023/06/22 00:45:56;;;;;;;24.83;14.88;;;;;;;;;;5014518;28;20185;-84
2023/06/22 00:48:23;;;;;;;23.67;16.40;;;;;;;;;;5014419;28;20030;-85
2023/06/22 00:50:51;;;;;;;39.92;15.35;;;;;;;;;;5013195;28;20026;-82
2023/06/22 00:53:18;;;;;;;32.70;12.55;;;;;;;;;;5014174;28;20030;-86
2023/06/22 00:55:45;;;;;;;30.73;10.95;;;;;;;;;;5014970;28;20042;-85
2023/06/22 00:58:11;;;;;;;28.02;12.55;;;;;;;;;;5015237;28;20046;-83
2023/06/22 01:00:37;;;;;;;34.42;13.32;;;;;;;;;;5015710;28;20054;-85
2023/06/22 01:03:03;;;;;;;33.90;13.25;;;;;;;;;;5016562;28;20032;-87
2023/06/22 01:05:30;;;;;;;34.60;11.75;;;;;;;;;;5015069;28;20053;-84
2023/06/22 01:07:56;;;;;;;38.70;14.13;;;;;;;;;;4996933;28;20061;-85
2023/06/22 01:10:27;;;;;;;26.02;10.20;;;;;;;;;;5011966;28;20041;-86
2023/06/22 01:13:01;;;;;;;24.33;11.38;;;;;;;;;;5010069;28;20133;-86
2023/06/22 01:15:27;;;;;;;19.33;10.85;;;;;;;;;;5013205;28;20081;-86
2023/06/22 01:17:53;;;;;;;23.25;10.90;;;;;;;;;;5009775;28;20069;-85
2023/06/22 01:20:19;;;;;;;14.02;9.80;;;;;;;;;;5005064;28;20035;-86
2023/06/22 01:22:50;;;;;;;27.27;10.25;;;;;;;;;;5009620;28;20141;-87
2023/06/22 01:25:19;;;;;;;35.03;12.25;;;;;;;;;;4978620;28;20054;-85
2023/06/22 01:27:45;;;;;;;33.30;13.27;;;;;;;;;;4997502;28;20121;-86
2023/06/22 01:30:11;;;;;;;29.85;11.93;;;;;;;;;;4998011;28;20050;-85
2023/06/22 01:32:38;;;;;;;25.17;11.50;;;;;;;;;;5012515;28;20454;-86
2023/06/22 01:35:05;;;;;;;31.08;12.30;;;;;;;;;;5002701;28;20045;-87
2023/06/22 01:37:33;;;;;;;29.40;11.27;;;;;;;;;;5000440;28;20034;-86
2023/06/22 01:39:59;;;;;;;23.92;12.00;;;;;;;;;;5005747;28;20093;-86
2023/06/22 01:42:25;;;;;;;21.30;11.07;;;;;;;;;;5006350;28;20030;-87
2023/06/22 01:44:54;;;;;;;20.90;10.35;;;;;;;;;;5000285;28;20739;-85
2023/06/22 01:47:23;;;;;;;34.08;10.93;;;;;;;;;;5007604;28;20045;-85
2023/06/22 01:49:51;;;;;;;27.05;12.13;;;;;;;;;;5053375;23;20101;-83
2023/06/22 01:52:17;;;;;;;25.02;10.40;;;;;;;;;;5013097;28;20037;-85
2023/06/22 01:54:43;;;;;;;21.45;9.02;;;;;;;;;;4981771;28;20057;-85
2023/06/22 01:57:10;;;;;;;20.23;9.95;;;;;;;;;;5012102;28;20038;-85
2023/06/22 01:59:42;;;;;;;17.42;10.65;;;;;;;;;;5012948;28;20042;-85
2023/06/22 02:02:09;;;;;;;18.50;9.43;;;;;;;;;;4998116;28;20062;-87
2023/06/22 02:04:42;;;;;;;35.35;10.90;;;;;;;;;;5016820;28;20029;-86
2023/06/22 02:07:09;;;;;;;27.25;12.60;;;;;;;;;;4999652;28;20042;-86
2023/06/22 02:09:35;;;;;;;23.75;14.15;;;;;;;;;;4999897;28;20081;-86
2023/06/22 02:12:01;;;;;;;32.35;15.32;;;;;;;;;;5017343;28;20030;-86
2023/06/22 02:14:28;;;;;;;35.10;14.32;;;;;;;;;;5017343;28;20043;-86
2023/06/22 02:16:54;;;;;;;29.90;12.43;;;;;;;;;;5001093;28;20050;-85
2023/06/22 02:19:24;;;;;;;34.58;12.15;;;;;;;;;;4984601;28;20047;-86
2023/06/22 02:21:50;;;;;;;30.35;11.27;;;;;;;;;;5018556;28;20049;-83
2023/06/22 02:24:16;;;;;;;30.25;11.50;;;;;;;;;;5019395;28;20038;-88
2023/06/22 02:26:45;;;;;;;20.58;11.32;;;;;;;;;;5143743;23;20999;-80
2023/06/22 02:29:11;;;;;;;28.38;10.80;;;;;;;;;;5015716;28;20046;-85
2023/06/22 02:31:37;;;;;;;26.25;10.27;;;;;;;;;;4983342;28;20039;-88
2023/06/22 02:34:04;;;;;;;30.55;10.35;;;;;;;;;;5151804;23;20186;-86
2023/06/22 02:36:30;;;;;;;29.08;9.82;;;;;;;;;;5096528;23;20046;-84
2023/06/22 02:39:01;;;;;;;23.98;10.00;;;;;;;;;;4971383;28;20040;-86
2023/06/22 02:41:27;;;;;;;23.13;9.88;;;;;;;;;;5018725;28;20053;-86
2023/06/22 02:43:56;;;;;;;21.33;11.30;;;;;;;;;;5017867;28;20045;-85
2023/06/22 02:46:22;;;;;;;32.42;11.10;;;;;;;;;;5018786;28;20021;-86
2023/06/22 02:48:49;;;;;;;40.55;10.75;;;;;;;;;;5001946;28;20048;-87
2023/06/22 02:51:15;;;;;;;41.33;11.93;;;;;;;;;;5016727;28;20060;-88
2023/06/22 02:53:44;;;;;;;49.38;12.52;;;;;;;;;;5017242;28;20014;-87
2023/06/22 02:56:12;;;;;;;;;;;;;;;;;;5002273;28;20010;-84
2023/06/22 02:58:39;;;;;;;38.38;12.05;;;;;;;;;;5018232;28;19933;-89
2023/06/22 03:01:10;;;;;;;39.88;11.55;;;;;;;;;;5099952;23;20252;-80
2023/06/22 03:03:37;;;;;;;54.75;11.43;;;;;;;;;;5159506;23;20045;-86
2023/06/22 03:06:03;;;;;;;45.10;12.45;;;;;;;;;;5113574;23;20062;-88
2023/06/22 03:08:29;;;;;;;39.63;11.60;;;;;;;;;;4997268;28;20037;-86
2023/06/22 03:10:56;;;;;;;39.85;13.30;;;;;;;;;;5012842;28;20182;-87
2023/06/22 03:13:22;;;;;;;46.42;10.88;;;;;;;;;;5012140;28;20143;-87
2023/06/22 03:15:48;;;;;;;49.63;10.70;;;;;;;;;;4998768;28;20030;-87
2023/06/22 03:18:15;;;;;;;51.72;10.88;;;;;;;;;;5015333;28;20026;-86
2023/06/22 03:20:41;;;;;;;30.00;10.18;;;;;;;;;;5016890;28;20057;-87
2023/06/22 03:23:09;;;;;;;32.08;9.98;;;;;;;;;;5015885;28;20511;-87
2023/06/22 03:25:35;;;;;;;32.95;10.20;;;;;;;;;;5001470;28;20042;-83
2023/06/22 03:28:01;;;;;;;17.42;8.70;;;;;;;;;;4982842;28;20072;-82
2023/06/22 03:30:28;;;;;;;14.48;8.60;;;;;;;;;;4982739;28;20034;-83
2023/06/22 03:32:54;;;;;;;14.77;8.02;;;;;;;;;;5000995;28;20132;-83
2023/06/22 03:35:20;;;;;;;15.93;9.30;;;;;;;;;;5004842;28;20049;-83
2023/06/22 03:37:47;;;;;;;20.98;10.00;;;;;;;;;;4987647;28;20101;-84
2023/06/22 03:40:14;;;;;;;12.15;9.25;;;;;;;;;;5005397;28;20034;-81
2023/06/22 03:42:40;;;;;;;18.15;8.93;;;;;;;;;;4991373;28;20037;-83
2023/06/22 03:45:06;;;;;;;11.40;9.07;;;;;;;;;;4992361;28;20038;-84
2023/06/22 03:47:34;;;;;;;14.25;8.70;;;;;;;;;;4989589;28;20026;-84
2023/06/22 03:50:03;;;;;;;19.35;8.13;;;;;;;;;;4986303;28;20422;-84
2023/06/22 03:52:33;;;;;;;13.05;8.13;;;;;;;;;;4984951;28;20046;-83
2023/06/22 03:54:59;;;;;;;19.27;8.20;;;;;;;;;;4986069;28;20039;-82
2023/06/22 03:57:26;;;;;;;16.47;8.47;;;;;;;;;;4985411;28;20031;-84
2023/06/22 03:59:52;;;;;;;13.88;7.60;;;;;;;;;;5001602;28;20043;-83
2023/06/22 04:02:18;;;;;;;10.95;7.47;;;;;;;;;;4986442;28;20039;-83
2023/06/22 04:04:44;;;;;;;13.23;7.70;;;;;;;;;;4987166;28;20078;-83
2023/06/22 04:07:10;;;;;;;13.75;7.22;;;;;;;;;;4987582;28;20096;-81
2023/06/22 04:09:36;;;;;;;11.70;6.90;;;;;;;;;;4987564;28;20030;-83
2023/06/22 04:12:02;;;;;;;14.60;7.32;;;;;;;;;;4988146;28;20049;-83
2023/06/22 04:14:28;;;;;;;16.30;7.70;;;;;;;;;;4986836;28;20039;-85
2023/06/22 04:16:54;;;;;;;25.45;8.35;;;;;;;;;;5003585;28;20098;-83
2023/06/22 04:19:20;;;;;;;12.80;7.78;;;;;;;;;;4954291;28;20058;-83
2023/06/22 04:21:48;;;;;;;15.05;7.28;;;;;;;;;;4987891;28;20046;-84
2023/06/22 04:24:14;;;;;;;12.25;7.40;;;;;;;;;;5002328;28;20052;-83
2023/06/22 04:26:42;;;;;;;15.93;7.72;;;;;;;;;;4983652;28;20035;-82
2023/06/22 04:29:08;;;;;;;8.55;7.68;;;;;;;;;;4985972;28;20150;-83
2023/06/22 04:31:37;;;;;;;11.65;8.38;;;;;;;;;;4982217;28;20058;-81
2023/06/22 04:34:07;;;;;;;17.25;7.00;;;;;;;;;;4978984;28;20536;-84
2023/06/22 04:36:37;;;;;;;8.10;7.40;;;;;;;;;;4976898;28;20047;-83
2023/06/22 04:39:04;;;;;;;12.38;6.63;;;;;;;;;;4976122;28;20046;-84
2023/06/22 04:41:41;;;;;;;10.00;6.82;;;;;;;;;;4977359;28;20038;-83
2023/06/22 04:44:08;;;;;;;9.68;6.43;;;;;;;;;;4978603;28;20069;-82
2023/06/22 04:46:37;;;;;;;12.90;6.60;;;;;;;;;;4983639;28;20422;-81
2023/06/22 04:49:09;;;;;;;13.60;6.53;;;;;;;;;;4987247;28;20030;-84
2023/06/22 04:51:39;;;;;;;8.95;6.18;;;;;;;;;;4987531;28;20038;-83
2023/06/22 04:54:05;;;;;;;10.50;6.60;;;;;;;;;;4987735;28;20045;-82
2023/06/22 04:56:32;;;;;;;14.75;6.75;;;;;;;;;;5002325;28;20054;-84
2023/06/22 04:58:57;;;;;;;14.93;6.57;;;;;;;;;;4985896;28;20046;-83
2023/06/22 05:01:25;;;;;;;16.75;6.85;;;;;;;;;;4984478;28;20057;-83
2023/06/22 05:03:55;;;;;;;11.55;6.60;;;;;;;;;;4982350;28;20069;-81
2023/06/22 05:06:24;;;;;;;10.50;6.95;;;;;;;;;;4980354;28;20141;-83
2023/06/22 05:08:52;;;;;;;15.73;7.20;;;;;;;;;;4985325;28;20107;-82
2023/06/22 05:11:18;;;;;;;10.63;6.50;;;;;;;;;;4988199;28;20102;-83
2023/06/22 05:13:45;;;;;;;9.20;5.90;;;;;;;;;;4989375;28;20094;-83
2023/06/22 05:16:10;;;;;;;9.45;5.90;;;;;;;;;;4988255;28;20034;-83
2023/06/22 05:18:36;;;;;;;11.05;5.05;;;;;;;;;;4984952;28;20057;-83
2023/06/22 05:21:03;;;;;;;10.52;6.65;;;;;;;;;;4986462;28;20070;-83
2023/06/22 05:23:28;;;;;;;10.13;5.93;;;;;;;;;;4984270;28;20041;-83
2023/06/22 05:25:57;;;;;;;7.03;4.80;;;;;;;;;;4983791;28;20034;-81
2023/06/22 05:28:23;;;;;;;11.05;5.72;;;;;;;;;;4985397;28;20049;-84
2023/06/22 05:30:49;;;;;;;7.47;5.10;;;;;;;;;;4984578;28;20073;-84
2023/06/22 05:33:15;;;;;;;10.05;5.35;;;;;;;;;;4984735;28;20058;-83
2023/06/22 05:35:41;;;;;;;8.35;5.90;;;;;;;;;;4995554;28;20050;-84
2023/06/22 05:38:08;;;;;;;9.43;5.38;;;;;;;;;;4991195;28;20110;-83
2023/06/22 05:40:33;;;;;;;10.85;5.80;;;;;;;;;;4989606;28;20081;-83
2023/06/22 05:43:01;;;;;;;8.55;5.65;;;;;;;;;;4986991;28;20042;-84
2023/06/22 05:45:27;;;;;;;12.48;5.68;;;;;;;;;;4985933;28;20177;-83
2023/06/22 05:47:53;;;;;;;9.43;5.78;;;;;;;;;;4987872;28;20054;-84
2023/06/22 05:50:20;;;;;;;11.65;5.65;;;;;;;;;;4988562;28;20043;-84
2023/06/22 05:52:45;;;;;;;13.98;5.60;;;;;;;;;;4988763;28;20039;-86
2023/06/22 05:55:12;;;;;;;9.43;4.70;;;;;;;;;;4989639;28;20035;-85
2023/06/22 05:57:38;;;;;;;9.68;5.18;;;;;;;;;;5000102;28;20054;-85
2023/06/22 06:00:08;;;;;;;12.00;4.53;;;;;;;;;;4999200;28;20039;-86
2023/06/22 06:02:35;;;;;;;6.95;5.15;;;;;;;;;;5000362;28;20094;-84
2023/06/22 06:05:02;;;;;;;9.32;4.80;;;;;;;;;;5000424;28;20103;-85
2023/06/22 06:07:29;;;;;;;7.15;4.50;;;;;;;;;;4996659;28;20039;-87
2023/06/22 06:09:55;;;;;;;6.95;4.75;;;;;;;;;;4993300;28;20106;-88
2023/06/22 06:12:22;;;;;;;9.05;4.18;;;;;;;;;;4993561;28;20031;-86
2023/06/22 06:14:47;;;;;;;12.75;4.53;;;;;;;;;;4990497;28;20078;-86
2023/06/22 06:17:13;;;;;;;8.85;4.15;;;;;;;;;;4995862;28;20517;-85
2023/06/22 06:19:39;;;;;;;9.20;4.13;;;;;;;;;;4991999;28;20539;-83
2023/06/22 06:22:06;;;;;;;7.88;3.80;;;;;;;;;;4994740;28;20007;-87
2023/06/22 06:24:32;;;;;;;4.68;3.90;;;;;;;;;;4999521;28;20066;-85
2023/06/22 06:26:58;;;;;;;5.50;3.78;;;;;;;;;;4998375;28;20091;-85
2023/06/22 06:29:24;;;;;;;4.13;3.75;;;;;;;;;;4998359;28;20061;-86
2023/06/22 06:31:50;;;;;;;4.43;3.70;;;;;;;;;;4999948;28;20116;-86
2023/06/22 06:34:16;;;;;;;6.50;4.18;;;;;;;;;;4999430;28;20070;-85
2023/06/22 06:36:42;;;;;;;5.97;3.63;;;;;;;;;;4982924;28;20038;-85
2023/06/22 06:39:09;;;;;;;10.10;4.22;;;;;;;;;;5000014;28;20070;-87
2023/06/22 06:41:35;;;;;;;3.78;3.47;;;;;;;;;;4999029;28;20037;-88
2023/06/22 06:44:01;;;;;;;4.28;3.88;;;;;;;;;;4998223;28;20022;-86
2023/06/22 06:46:27;;;;;;;4.45;3.35;;;;;;;;;;5014349;28;20082;-88
2023/06/22 06:48:53;;;;;;;6.97;3.70;;;;;;;;;;4998838;28;20027;-86
2023/06/22 06:51:19;;;;;;;3.55;3.25;;;;;;;;;;4999164;28;20035;-87
2023/06/22 06:53:46;;;;;;;4.32;2.97;;;;;;;;;;4982455;28;20039;-86
2023/06/22 06:56:12;;;;;;;6.82;3.65;;;;;;;;;;4998545;28;20144;-86
2023/06/22 06:58:40;;;;;;;4.88;3.47;;;;;;;;;;4998314;28;20038;-86
2023/06/22 07:01:06;;;;;;;5.28;3.60;;;;;;;;;;4996683;28;20007;-87
2023/06/22 07:03:33;;;;;;;3.60;3.30;;;;;;;;;;4996387;28;20046;-87
2023/06/22 07:05:59;;;;;;;4.25;3.75;;;;;;;;;;5013791;28;20110;-87
2023/06/22 07:08:25;;;;;;;5.93;3.40;;;;;;;;;;4998482;28;20094;-87
2023/06/22 07:10:52;;;;;;;4.13;3.72;;;;;;;;;;5013889;28;20039;-86
2023/06/22 07:13:18;;;;;;;9.15;3.90;;;;;;;;;;5070016;23;20054;-78
2023/06/22 07:15:44;;;;;;;5.38;3.60;;;;;;;;;;4998255;28;20125;-87
2023/06/22 07:18:10;;;;;;;9.20;3.97;;;;;;;;;;4999750;28;20094;-87
2023/06/22 07:20:36;;;;;;;8.27;3.72;;;;;;;;;;4999254;28;20034;-87
2023/06/22 07:23:03;;;;;;;5.88;3.80;;;;;;;;;;5140535;23;20048;-86
2023/06/22 07:25:29;;;;;;;5.63;3.47;;;;;;;;;;5469277;23;20046;-86
2023/06/22 07:28:01;;;;;;;4.05;3.40;;;;;;;;;;5086359;23;20135;-89
2023/06/22 07:33:27;;;;;;;6.70;3.80;;;;;;;;;;5121543;23;20065;-88
2023/06/22 07:35:53;;;;;;;4.90;3.45;;;;;;;;;;5017996;28;20039;-84
2023/06/22 07:38:19;;;;;;;3.30;3.00;;;;;;;;;;5018854;28;20034;-86
2023/06/22 07:40:45;;;;;;;6.25;2.85;;;;;;;;;;5018835;28;20030;-87
2023/06/22 07:43:11;;;;;;;6.30;3.10;;;;;;;;;;5018427;28;20022;-86
2023/06/22 07:45:38;;;;;;;3.83;3.40;;;;;;;;;;5018818;28;20044;-86
2023/06/22 07:48:04;;;;;;;3.33;3.10;;;;;;;;;;5177169;23;20055;-89
2023/06/22 07:50:31;;;;;;;4.32;3.92;;;;;;;;;;5001614;28;20030;-89
2023/06/22 07:52:57;;;;;;;3.78;3.50;;;;;;;;;;5001338;28;20014;-87
2023/06/22 07:55:23;;;;;;;4.20;3.80;;;;;;;;;;5017072;28;20029;-89
2023/06/22 07:57:51;;;;;;;7.22;3.17;;;;;;;;;;5016284;28;20022;-87
2023/06/22 08:00:18;;;;;;;3.60;3.40;;;;;;;;;;5014458;28;20061;-88
2023/06/22 08:05:27;;;;;;;6.88;3.80;;;;;;;;;;4996123;28;20345;-88
2023/06/22 08:07:54;;;;;;;3.60;3.28;;;;;;;;;;5062652;23;20054;-86
2023/06/22 08:10:21;;;;;;;5.00;3.63;;;;;;;;;;5015858;28;20043;-89
2023/06/22 08:12:47;;;;;;;4.03;3.50;;;;;;;;;;5144044;23;20050;-88
2023/06/22 08:15:13;;;;;;;3.78;3.47;;;;;;;;;;5017348;28;20065;-86
2023/06/22 08:17:39;;;;;;;6.22;3.65;;;;;;;;;;5335317;23;20043;-86
2023/06/22 08:23:00;;;;;;;14.25;4.03;;;;;;;;;;4956974;29;20034;-87
2023/06/22 08:25:26;;;;;;;6.60;3.58;;;;;;;;;;5173640;23;20074;-88
2023/06/22 08:27:52;;;;;;;4.07;2.80;;;;;;;;;;4943168;29;20019;-86
2023/06/22 08:30:21;;;;;;;3.58;3.38;;;;;;;;;;4958954;29;20063;-88
2023/06/22 08:32:47;;;;;;;3.10;2.90;;;;;;;;;;5062560;23;20041;-88
2023/06/22 08:35:14;;;;;;;3.92;3.58;;;;;;;;;;5036071;28;20042;-87
2023/06/22 08:37:40;;;;;;;4.38;3.97;;;;;;;;;;5019945;28;20033;-87
2023/06/22 08:40:10;;;;;;;3.63;3.33;;;;;;;;;;5036669;28;20038;-89
2023/06/22 08:42:36;;;;;;;7.65;3.83;;;;;;;;;;5036313;28;20013;-87
2023/06/22 08:45:02;;;;;;;6.50;3.67;;;;;;;;;;5036548;28;20094;-89
2023/06/22 08:47:33;;;;;;;3.70;3.40;;;;;;;;;;5035612;28;20073;-83
2023/06/22 08:50:01;;;;;;;3.70;3.40;;;;;;;;;;5018966;28;20057;-88
2023/06/22 08:52:31;;;;;;;5.18;3.30;;;;;;;;;;5034973;28;20033;-86
2023/06/22 08:54:58;;;;;;;5.90;3.90;;;;;;;;;;5035123;28;20053;-88
2023/06/22 08:57:24;;;;;;;10.23;3.53;;;;;;;;;;5035291;28;20022;-89
2023/06/22 09:00:16;;;;;;;3.92;3.53;;;;;;;;;;5041441;23;20038;31
2023/06/22 09:02:45;;;;;;;3.40;3.20;;;;;;;;;;5165453;23;20038;-88
2023/06/22 09:05:11;;;;;;;7.53;3.35;;;;;;;;;;4993214;28;20058;-84
2023/06/22 09:07:37;;;;;;;12.95;2.53;;;;;;;;;;4991908;28;20042;-87
2023/06/22 09:10:04;;;;;;;4.10;3.50;;;;;;;;;;4989118;28;20073;-87
2023/06/22 09:12:33;;;;;;;6.75;3.55;;;;;;;;;;4995222;28;20039;-85
2023/06/22 09:15:00;;;;;;;4.57;3.63;;;;;;;;;;5041347;23;20054;-88
2023/06/22 09:17:26;;;;;;;5.75;3.10;;;;;;;;;;5018795;28;20061;-86
2023/06/22 09:19:52;;;;;;;4.60;3.50;;;;;;;;;;5019704;28;20030;-85
2023/06/22 09:22:18;;;;;;;4.07;3.67;;;;;;;;;;5021099;28;20038;-85
2023/06/22 09:24:44;;;;;;;5.97;3.35;;;;;;;;;;5020577;28;20042;-89
2023/06/22 09:27:10;;;;;;;4.53;3.20;;;;;;;;;;5020840;28;20065;-87
2023/06/22 09:29:36;;;;;;;3.42;3.13;;;;;;;;;;5017933;28;20034;-85
2023/06/22 09:32:02;;;;;;;12.07;3.75;;;;;;;;;;5019563;28;20030;-88
2023/06/22 09:34:28;;;;;;;4.22;3.72;;;;;;;;;;5020396;28;20014;-86
2023/06/22 09:36:55;;;;;;;5.45;3.55;;;;;;;;;;5019230;28;20051;-87
2023/06/22 09:39:21;;;;;;;5.05;3.33;;;;;;;;;;5200120;23;20921;-83
2023/06/22 09:41:47;;;;;;;3.55;3.25;;;;;;;;;;5018299;28;20095;-88
2023/06/22 09:44:13;;;;;;;5.32;3.60;;;;;;;;;;5020305;28;20056;-86
2023/06/22 09:46:39;;;;;;;4.88;3.20;;;;;;;;;;5020001;28;20041;-86
2023/06/22 09:49:05;;;;;;;3.72;3.15;;;;;;;;;;5020771;28;20018;-87
2023/06/22 09:51:31;;;;;;;6.75;3.50;;;;;;;;;;5164621;23;20107;-87
2023/06/22 09:53:58;;;;;;;5.43;3.72;;;;;;;;;;5020144;28;20022;-87
2023/06/22 09:56:24;;;;;;;5.10;3.78;;;;;;;;;;5020359;28;20066;-87
2023/06/22 09:58:52;;;;;;;4.50;3.60;;;;;;;;;;5020136;28;20046;-87
2023/06/22 10:01:20;;;;;;;4.35;3.47;;;;;;;;;;5063491;23;20098;-86
2023/06/22 10:03:46;;;;;;;3.10;2.30;;;;;;;;;;5001090;28;20034;-86
2023/06/22 10:06:13;;;;;;;4.78;3.47;;;;;;;;;;5000122;28;20029;-85
2023/06/22 10:08:40;;;;;;;3.88;3.45;;;;;;;;;;4983621;28;20039;-87
2023/06/22 10:11:06;;;;;;;5.28;3.50;;;;;;;;;;5000371;28;20041;-87
2023/06/22 10:13:32;;;;;;;3.60;3.30;;;;;;;;;;5000435;28;20038;-84
2023/06/22 10:15:58;;;;;;;3.72;3.50;;;;;;;;;;4999559;28;20022;-86
2023/06/22 10:18:24;;;;;;;5.60;3.20;;;;;;;;;;5127780;23;20030;-87
2023/06/22 10:20:53;;;;;;;3.92;3.60;;;;;;;;;;4999951;28;20026;-87
2023/06/22 10:23:19;;;;;;;5.03;3.90;;;;;;;;;;5467674;23;20073;-86
2023/06/22 10:25:45;;;;;;;4.88;3.80;;;;;;;;;;5254180;23;20118;-86
2023/06/22 10:28:12;;;;;;;4.28;4.00;;;;;;;;;;5357405;23;20046;-83
2023/06/22 10:30:41;;;;;;;6.50;3.75;;;;;;;;;;5428402;23;20307;-85
2023/06/22 10:33:07;;;;;;;4.10;3.80;;;;;;;;;;5019961;28;20446;-88
2023/06/22 10:35:34;;;;;;;5.40;3.50;;;;;;;;;;5019693;28;20042;-83
2023/06/22 10:38:00;;;;;;;6.60;4.03;;;;;;;;;;5019451;28;20026;-85
2023/06/22 10:40:26;;;;;;;4.75;3.67;;;;;;;;;;5019165;28;20034;-86
2023/06/22 10:42:53;;;;;;;3.53;3.22;;;;;;;;;;5012415;28;20070;-84
2023/06/22 10:45:19;;;;;;;3.60;3.40;;;;;;;;;;5010722;28;20034;-85
2023/06/22 10:47:45;;;;;;;4.35;3.80;;;;;;;;;;5013542;28;20042;-86
2023/06/22 10:50:11;;;;;;;4.80;3.33;;;;;;;;;;5016255;28;20037;-85
2023/06/22 10:52:38;;;;;;;4.60;3.58;;;;;;;;;;5016404;28;20061;-85
2023/06/22 10:55:04;;;;;;;12.55;3.50;;;;;;;;;;4997123;28;20045;-84
2023/06/22 10:57:31;;;;;;;6.10;3.45;;;;;;;;;;5012783;28;20042;-85
2023/06/22 10:59:57;;;;;;;3.92;3.63;;;;;;;;;;5013298;28;20048;-85
2023/06/22 11:02:24;;;;;;;3.65;3.45;;;;;;;;;;5017109;28;20022;-83
2023/06/22 11:04:50;;;;;;;5.38;3.83;;;;;;;;;;5013976;28;20060;-86
2023/06/22 11:07:16;;;;;;;4.32;3.92;;;;;;;;;;5013055;28;20011;-84
2023/06/22 11:09:45;;;;;;;7.60;3.80;;;;;;;;;;5011371;28;20070;-85
2023/06/22 11:12:11;;;;;;;3.90;3.60;;;;;;;;;;5012030;28;20053;-83
2023/06/22 11:14:38;;;;;;;4.13;3.72;;;;;;;;;;5010554;28;20037;-85
2023/06/22 11:17:05;;;;;;;4.57;3.85;;;;;;;;;;5010963;28;20114;-84
2023/06/22 11:19:31;;;;;;;4.28;3.88;;;;;;;;;;5011178;28;20049;-84
2023/06/22 11:21:57;;;;;;;6.13;4.10;;;;;;;;;;5010595;28;20041;-84
2023/06/22 11:24:23;;;;;;;7.57;4.20;;;;;;;;;;5010822;28;20113;-85
2023/06/22 11:26:49;;;;;;;4.10;3.80;;;;;;;;;;5009953;28;20057;-84
2023/06/22 11:29:15;;;;;;;4.57;4.18;;;;;;;;;;5009333;28;20098;-83
2023/06/22 11:31:42;;;;;;;4.05;3.75;;;;;;;;;;5010125;28;20049;-84
2023/06/22 11:34:08;;;;;;;6.50;4.20;;;;;;;;;;5012486;28;20034;-84
2023/06/22 11:36:35;;;;;;;10.32;4.70;;;;;;;;;;5012673;28;20037;-83
2023/06/22 11:39:01;;;;;;;4.30;3.95;;;;;;;;;;5012173;28;20050;-84
2023/06/22 11:41:28;;;;;;;6.47;4.30;;;;;;;;;;5009302;28;20117;-84
2023/06/22 11:43:54;;;;;;;7.65;4.43;;;;;;;;;;5010274;28;20043;-82
2023/06/22 11:46:20;;;;;;;6.35;4.00;;;;;;;;;;5008038;28;20057;-84
2023/06/22 11:48:46;;;;;;;9.38;4.47;;;;;;;;;;5008378;28;20066;-85
2023/06/22 11:51:12;;;;;;;6.43;3.95;;;;;;;;;;5010627;28;20025;-83
2023/06/22 11:53:38;;;;;;;4.63;4.20;;;;;;;;;;5012296;28;20042;-84
2023/06/22 11:56:04;;;;;;;8.73;4.90;;;;;;;;;;5014808;28;20035;-84
2023/06/22 11:58:30;;;;;;;8.32;5.15;;;;;;;;;;5017248;28;20044;-84
2023/06/22 12:00:56;;;;;;;4.88;4.43;;;;;;;;;;5017439;28;20027;-84
2023/06/22 12:03:23;;;;;;;6.70;4.45;;;;;;;;;;5017606;28;20053;-83
2023/06/22 12:05:49;;;;;;;7.05;4.38;;;;;;;;;;5018537;28;20019;-84
2023/06/22 12:08:15;;;;;;;7.22;4.65;;;;;;;;;;5017809;28;20030;-83
2023/06/22 12:10:41;;;;;;;6.18;4.85;;;;;;;;;;5018552;28;20022;-84
2023/06/22 12:13:07;;;;;;;6.68;4.90;;;;;;;;;;5018171;28;20042;-83
2023/06/22 12:15:33;;;;;;;7.57;5.22;;;;;;;;;;5018198;28;20038;-82
2023/06/22 12:17:59;;;;;;;5.90;5.50;;;;;;;;;;5017752;28;20045;-83
2023/06/22 12:20:25;;;;;;;8.85;5.80;;;;;;;;;;5017401;28;20034;-85
2023/06/22 12:22:52;;;;;;;6.55;5.65;;;;;;;;;;5017995;28;20062;-83
2023/06/22 12:25:18;;;;;;;6.68;6.07;;;;;;;;;;5017319;28;20030;-83
2023/06/22 12:27:45;;;;;;;6.60;5.40;;;;;;;;;;5011412;28;20039;-84
2023/06/22 12:30:11;;;;;;;5.40;5.00;;;;;;;;;;5008506;28;20056;-83
2023/06/22 12:32:37;;;;;;;5.65;5.18;;;;;;;;;;5007657;28;20066;-84
2023/06/22 12:35:04;;;;;;;8.38;5.32;;;;;;;;;;5006235;28;20542;-83
2023/06/22 12:37:31;;;;;;;5.85;5.32;;;;;;;;;;5005828;28;20046;-85
2023/06/22 12:39:57;;;;;;;8.45;4.60;;;;;;;;;;5005788;28;20046;-84
2023/06/22 12:42:23;;;;;;;9.95;5.18;;;;;;;;;;5007216;28;20017;-85
2023/06/22 12:44:49;;;;;;;5.97;4.85;;;;;;;;;;5007811;28;20030;-85
2023/06/22 12:47:15;;;;;;;6.55;5.50;;;;;;;;;;5010236;28;20034;-84
2023/06/22 12:49:41;;;;;;;6.70;5.30;;;;;;;;;;5012583;28;20041;-84
2023/06/22 12:52:11;;;;;;;7.13;5.53;;;;;;;;;;5013995;28;20126;-83
2023/06/22 12:54:37;;;;;;;5.95;5.45;;;;;;;;;;5011994;28;20028;-84
2023/06/22 12:57:02;;;;;;;6.05;5.43;;;;;;;;;;5012333;28;20062;-85
2023/06/22 12:59:29;;;;;;;8.50;5.40;;;;;;;;;;5011740;28;20069;-85
2023/06/22 13:01:54;;;;;;;5.88;5.38;;;;;;;;;;5011949;28;20038;-83
2023/06/22 13:04:21;;;;;;;6.93;5.65;;;;;;;;;;5012415;28;20027;-84
2023/06/22 13:06:47;;;;;;;7.43;5.13;;;;;;;;;;5013398;28;20018;-85
2023/06/22 13:09:13;;;;;;;7.07;5.53;;;;;;;;;;5011824;28;20042;-83
2023/06/22 13:11:39;;;;;;;5.93;4.97;;;;;;;;;;5011382;28;20041;-84
2023/06/22 13:14:05;;;;;;;5.68;5.03;;;;;;;;;;5009643;28;20042;-85
2023/06/22 13:16:31;;;;;;;6.45;4.93;;;;;;;;;;5005756;28;20064;-84
2023/06/22 13:18:57;;;;;;;9.30;5.30;;;;;;;;;;5001285;28;20042;-86
2023/06/22 13:21:23;;;;;;;5.28;4.63;;;;;;;;;;5000423;28;20038;-83
2023/06/22 13:23:49;;;;;;;7.88;5.63;;;;;;;;;;5000483;28;20045;-85
2023/06/22 13:26:15;;;;;;;10.63;4.70;;;;;;;;;;5006956;28;20035;-84
2023/06/22 13:28:41;;;;;;;5.28;4.90;;;;;;;;;;5008783;28;20049;-85
2023/06/22 13:31:07;;;;;;;5.60;5.10;;;;;;;;;;5009646;28;20054;-83
2023/06/22 13:33:33;;;;;;;5.47;5.07;;;;;;;;;;5009975;28;20065;-84
2023/06/22 13:35:59;;;;;;;8.15;5.68;;;;;;;;;;5009696;28;20030;-84
2023/06/22 13:38:25;;;;;;;6.90;5.38;;;;;;;;;;5009357;28;20504;-85
2023/06/22 13:40:51;;;;;;;6.60;5.80;;;;;;;;;;5010626;28;20102;-84
2023/06/22 13:43:17;;;;;;;6.40;5.82;;;;;;;;;;5009125;28;20030;-84
2023/06/22 13:45:43;;;;;;;6.00;5.28;;;;;;;;;;5006767;28;20089;-84
2023/06/22 13:48:09;;;;;;;6.80;5.53;;;;;;;;;;4974438;28;20042;-85
2023/06/22 13:50:35;;;;;;;7.15;5.53;;;;;;;;;;5008267;28;20030;-84
2023/06/22 13:53:01;;;;;;;7.45;5.45;;;;;;;;;;5007260;28;20417;-85
2023/06/22 13:55:27;;;;;;;6.15;5.53;;;;;;;;;;5007491;28;20041;-85
2023/06/22 13:57:53;;;;;;;6.40;5.43;;;;;;;;;;5007417;28;20070;-85
2023/06/22 14:00:19;;;;;;;7.30;5.82;;;;;;;;;;5011836;28;20034;-84
2023/06/22 14:02:45;;;;;;;6.88;5.93;;;;;;;;;;5010098;28;20045;-84
2023/06/22 14:05:11;;;;;;;7.20;6.60;;;;;;;;;;5009848;28;20125;-84
2023/06/22 14:07:38;;;;;;;6.53;5.85;;;;;;;;;;5011731;28;20042;-84
2023/06/22 14:10:04;;;;;;;6.15;5.65;;;;;;;;;;5011175;28;20040;-85
2023/06/22 14:12:31;;;;;;;6.65;6.03;;;;;;;;;;5009801;28;20517;-84
2023/06/22 14:14:57;;;;;;;7.13;5.80;;;;;;;;;;5012417;28;20034;-84
2023/06/22 14:17:25;;;;;;;7.90;5.90;;;;;;;;;;5012951;28;20038;-85
2023/06/22 14:19:55;;;;;;;7.63;5.68;;;;;;;;;;5013939;28;20034;-85
2023/06/22 14:22:21;;;;;;;8.93;5.82;;;;;;;;;;5013856;28;20038;-85
2023/06/22 14:24:47;;;;;;;8.13;5.82;;;;;;;;;;4980693;28;20030;-84
2023/06/22 14:27:13;;;;;;;5.88;5.35;;;;;;;;;;5013050;28;20045;-84
2023/06/22 14:29:39;;;;;;;5.72;5.25;;;;;;;;;;4995685;28;20034;-86
2023/06/22 14:32:06;;;;;;;6.00;5.50;;;;;;;;;;5013141;28;20054;-84
2023/06/22 14:34:35;;;;;;;6.00;5.40;;;;;;;;;;5013558;28;20046;-85
2023/06/22 14:37:02;;;;;;;9.95;6.30;;;;;;;;;;5017227;28;20010;-84
2023/06/22 14:39:28;;;;;;;13.55;5.78;;;;;;;;;;5016868;28;20054;-85
2023/06/22 14:41:54;;;;;;;8.30;6.15;;;;;;;;;;5011903;28;20048;-82